sensor_id;sensor_type;location;lat;lon;timestamp;P1;durP1;ratioP1;P2;durP2;ratioP2
1402;SDS011;696;48.546;9.896;2023-08-08T00:01:20;1.40;;;1.30;;
1402;SDS011;696;48.546;9.896;2023-08-08T00:03:46;2.58;;;1.20;;
1402;SDS011;696;48.546;9.896;2023-08-08T00:06:11;2.00;;;1.35;;
1402;SDS011;696;48.546;9.896;2023-08-08T00:08:36;4.15;;;1.73;;
1402;SDS011;696;48.546;9.896;2023-08-08T00:11:02;2.63;;;1.35;;
1402;SDS011;696;48.546;9.896;2023-08-08T00:13:27;4.30;;;1.60;;
1402;SDS011;696;48.546;9.896;2023-08-08T00:15:52;2.03;;;1.30;;
1402;SDS011;696;48.546;9.896;2023-08-08T00:18:18;1.95;;;1.40;;
1402;SDS011;696;48.546;9.896;2023-08-08T00:20:43;2.92;;;1.58;;
1402;SDS011;696;48.546;9.896;2023-08-08T00:23:08;2.33;;;1.77;;
1402;SDS011;696;48.546;9.896;2023-08-08T00:25:34;1.88;;;1.60;;
1402;SDS011;696;48.546;9.896;2023-08-08T00:28:00;3.13;;;1.50;;
1402;SDS011;696;48.546;9.896;2023-08-08T00:30:25;2.70;;;1.65;;
1402;SDS011;696;48.546;9.896;2023-08-08T00:32:51;3.78;;;1.90;;
1402;SDS011;696;48.546;9.896;2023-08-08T00:35:16;5.50;;;1.75;;
1402;SDS011;696;48.546;9.896;2023-08-08T00:37:41;4.75;;;1.50;;
1402;SDS011;696;48.546;9.896;2023-08-08T00:40:07;5.90;;;1.80;;
1402;SDS011;696;48.546;9.896;2023-08-08T00:42:32;2.80;;;1.42;;
1402;SDS011;696;48.546;9.896;2023-08-08T00:44:58;2.83;;;1.70;;
1402;SDS011;696;48.546;9.896;2023-08-08T00:47:28;1.73;;;1.35;;
1402;SDS011;696;48.546;9.896;2023-08-08T00:49:55;1.63;;;1.23;;
1402;SDS011;696;48.546;9.896;2023-08-08T00:52:20;2.42;;;1.65;;
1402;SDS011;696;48.546;9.896;2023-08-08T00:54:46;5.18;;;1.50;;
1402;SDS011;696;48.546;9.896;2023-08-08T00:57:11;1.48;;;1.38;;
1402;SDS011;696;48.546;9.896;2023-08-08T00:59:37;1.38;;;1.27;;
1402;SDS011;696;48.546;9.896;2023-08-08T01:02:02;1.95;;;1.35;;
1402;SDS011;696;48.546;9.896;2023-08-08T01:04:28;1.83;;;1.35;;
1402;SDS011;696;48.546;9.896;2023-08-08T01:06:58;1.50;;;1.38;;
1402;SDS011;696;48.546;9.896;2023-08-08T01:09:37;2.53;;;1.40;;
1402;SDS011;696;48.546;9.896;2023-08-08T01:12:19;1.70;;;1.30;;
1402;SDS011;696;48.546;9.896;2023-08-08T01:14:44;2.40;;;1.30;;
1402;SDS011;696;48.546;9.896;2023-08-08T01:17:10;2.30;;;1.50;;
1402;SDS011;696;48.546;9.896;2023-08-08T01:19:37;1.45;;;1.15;;
1402;SDS011;696;48.546;9.896;2023-08-08T01:22:04;2.22;;;1.10;;
1402;SDS011;696;48.546;9.896;2023-08-08T01:24:30;1.50;;;1.30;;
1402;SDS011;696;48.546;9.896;2023-08-08T01:26:58;1.30;;;1.20;;
1402;SDS011;696;48.546;9.896;2023-08-08T01:29:24;1.55;;;1.40;;
1402;SDS011;696;48.546;9.896;2023-08-08T01:31:49;3.13;;;1.38;;
1402;SDS011;696;48.546;9.896;2023-08-08T01:34:15;2.95;;;1.60;;
1402;SDS011;696;48.546;9.896;2023-08-08T01:39:17;2.83;;;1.20;;
1402;SDS011;696;48.546;9.896;2023-08-08T01:41:45;4.40;;;1.58;;
1402;SDS011;696;48.546;9.896;2023-08-08T01:44:12;4.70;;;1.80;;
1402;SDS011;696;48.546;9.896;2023-08-08T01:46:38;2.47;;;1.40;;
1402;SDS011;696;48.546;9.896;2023-08-08T01:49:04;1.17;;;1.08;;
1402;SDS011;696;48.546;9.896;2023-08-08T01:51:29;3.10;;;1.42;;
1402;SDS011;696;48.546;9.896;2023-08-08T01:53:55;1.23;;;1.13;;
1402;SDS011;696;48.546;9.896;2023-08-08T01:56:20;2.88;;;1.70;;
1402;SDS011;696;48.546;9.896;2023-08-08T01:58:46;4.30;;;1.77;;
1402;SDS011;696;48.546;9.896;2023-08-08T02:01:11;5.07;;;2.22;;
1402;SDS011;696;48.546;9.896;2023-08-08T02:03:36;2.80;;;1.70;;
1402;SDS011;696;48.546;9.896;2023-08-08T02:06:02;2.38;;;1.55;;
1402;SDS011;696;48.546;9.896;2023-08-08T02:08:27;1.77;;;1.63;;
1402;SDS011;696;48.546;9.896;2023-08-08T02:10:52;2.20;;;1.42;;
1402;SDS011;696;48.546;9.896;2023-08-08T02:13:18;3.40;;;1.50;;
1402;SDS011;696;48.546;9.896;2023-08-08T02:15:43;1.35;;;1.20;;
1402;SDS011;696;48.546;9.896;2023-08-08T02:18:08;3.13;;;1.50;;
1402;SDS011;696;48.546;9.896;2023-08-08T02:20:35;1.55;;;1.30;;
1402;SDS011;696;48.546;9.896;2023-08-08T02:23:01;2.15;;;1.65;;
1402;SDS011;696;48.546;9.896;2023-08-08T02:25:26;1.25;;;1.15;;
1402;SDS011;696;48.546;9.896;2023-08-08T02:27:52;2.95;;;1.77;;
1402;SDS011;696;48.546;9.896;2023-08-08T02:30:17;1.77;;;1.50;;
1402;SDS011;696;48.546;9.896;2023-08-08T02:32:42;1.80;;;1.35;;
1402;SDS011;696;48.546;9.896;2023-08-08T02:35:08;2.15;;;1.60;;
1402;SDS011;696;48.546;9.896;2023-08-08T02:37:33;2.35;;;1.42;;
1402;SDS011;696;48.546;9.896;2023-08-08T02:39:59;5.35;;;1.30;;
1402;SDS011;696;48.546;9.896;2023-08-08T02:42:24;2.28;;;1.33;;
1402;SDS011;696;48.546;9.896;2023-08-08T02:44:49;1.65;;;1.42;;
1402;SDS011;696;48.546;9.896;2023-08-08T02:47:15;3.38;;;1.50;;
1402;SDS011;696;48.546;9.896;2023-08-08T02:49:40;2.25;;;1.65;;
1402;SDS011;696;48.546;9.896;2023-08-08T02:52:06;2.45;;;1.77;;
1402;SDS011;696;48.546;9.896;2023-08-08T02:54:31;4.72;;;1.95;;
1402;SDS011;696;48.546;9.896;2023-08-08T02:56:57;3.97;;;1.70;;
1402;SDS011;696;48.546;9.896;2023-08-08T02:59:22;4.68;;;1.80;;
1402;SDS011;696;48.546;9.896;2023-08-08T03:01:47;4.38;;;2.15;;
1402;SDS011;696;48.546;9.896;2023-08-08T03:04:13;2.60;;;1.70;;
1402;SDS011;696;48.546;9.896;2023-08-08T03:06:38;1.95;;;1.55;;
1402;SDS011;696;48.546;9.896;2023-08-08T03:09:03;3.08;;;1.75;;
1402;SDS011;696;48.546;9.896;2023-08-08T03:11:30;1.70;;;1.25;;
1402;SDS011;696;48.546;9.896;2023-08-08T03:13:55;1.70;;;1.58;;
1402;SDS011;696;48.546;9.896;2023-08-08T03:16:20;2.53;;;1.73;;
1402;SDS011;696;48.546;9.896;2023-08-08T03:18:46;1.92;;;1.55;;
1402;SDS011;696;48.546;9.896;2023-08-08T03:21:11;3.92;;;1.60;;
1402;SDS011;696;48.546;9.896;2023-08-08T03:23:37;1.85;;;1.50;;
1402;SDS011;696;48.546;9.896;2023-08-08T03:26:02;2.92;;;1.60;;
1402;SDS011;696;48.546;9.896;2023-08-08T03:28:27;2.80;;;1.80;;
1402;SDS011;696;48.546;9.896;2023-08-08T03:30:53;1.55;;;1.33;;
1402;SDS011;696;48.546;9.896;2023-08-08T03:33:18;1.75;;;1.50;;
1402;SDS011;696;48.546;9.896;2023-08-08T03:35:43;5.40;;;1.65;;
1402;SDS011;696;48.546;9.896;2023-08-08T03:38:09;1.38;;;1.25;;
1402;SDS011;696;48.546;9.896;2023-08-08T03:40:34;4.07;;;1.83;;
1402;SDS011;696;48.546;9.896;2023-08-08T03:42:59;4.03;;;1.55;;
1402;SDS011;696;48.546;9.896;2023-08-08T03:45:25;1.80;;;1.50;;
1402;SDS011;696;48.546;9.896;2023-08-08T03:47:50;2.63;;;1.70;;
1402;SDS011;696;48.546;9.896;2023-08-08T03:50:15;1.38;;;1.23;;
1402;SDS011;696;48.546;9.896;2023-08-08T03:52:41;4.22;;;1.98;;
1402;SDS011;696;48.546;9.896;2023-08-08T03:55:06;5.40;;;2.22;;
1402;SDS011;696;48.546;9.896;2023-08-08T03:57:32;6.35;;;2.50;;
1402;SDS011;696;48.546;9.896;2023-08-08T03:59:57;4.70;;;3.00;;
1402;SDS011;696;48.546;9.896;2023-08-08T04:02:22;3.50;;;2.10;;
1402;SDS011;696;48.546;9.896;2023-08-08T04:04:50;3.67;;;2.08;;
1402;SDS011;696;48.546;9.896;2023-08-08T04:07:15;5.38;;;1.75;;
1402;SDS011;696;48.546;9.896;2023-08-08T04:09:40;2.65;;;1.90;;
1402;SDS011;696;48.546;9.896;2023-08-08T04:12:07;3.60;;;1.70;;
1402;SDS011;696;48.546;9.896;2023-08-08T04:14:32;3.40;;;1.70;;
1402;SDS011;696;48.546;9.896;2023-08-08T04:16:58;3.13;;;1.65;;
1402;SDS011;696;48.546;9.896;2023-08-08T04:19:23;4.53;;;1.52;;
1402;SDS011;696;48.546;9.896;2023-08-08T04:21:49;4.93;;;1.63;;
1402;SDS011;696;48.546;9.896;2023-08-08T04:24:14;1.67;;;1.42;;
1402;SDS011;696;48.546;9.896;2023-08-08T04:26:39;3.15;;;1.65;;
1402;SDS011;696;48.546;9.896;2023-08-08T04:29:05;3.80;;;2.10;;
1402;SDS011;696;48.546;9.896;2023-08-08T04:31:30;4.20;;;1.90;;
1402;SDS011;696;48.546;9.896;2023-08-08T04:33:56;2.63;;;1.90;;
1402;SDS011;696;48.546;9.896;2023-08-08T04:36:25;4.10;;;1.80;;
1402;SDS011;696;48.546;9.896;2023-08-08T04:38:51;3.50;;;1.80;;
1402;SDS011;696;48.546;9.896;2023-08-08T04:41:16;2.55;;;1.33;;
1402;SDS011;696;48.546;9.896;2023-08-08T04:43:41;2.22;;;1.58;;
1402;SDS011;696;48.546;9.896;2023-08-08T04:46:07;2.33;;;1.65;;
1402;SDS011;696;48.546;9.896;2023-08-08T04:48:32;1.98;;;1.70;;
1402;SDS011;696;48.546;9.896;2023-08-08T04:50:57;1.67;;;1.40;;
1402;SDS011;696;48.546;9.896;2023-08-08T04:53:23;1.83;;;1.42;;
1402;SDS011;696;48.546;9.896;2023-08-08T04:55:48;1.77;;;1.40;;
1402;SDS011;696;48.546;9.896;2023-08-08T04:58:13;3.08;;;1.65;;
1402;SDS011;696;48.546;9.896;2023-08-08T05:00:39;3.92;;;1.52;;
1402;SDS011;696;48.546;9.896;2023-08-08T05:03:04;1.77;;;1.30;;
1402;SDS011;696;48.546;9.896;2023-08-08T05:05:29;1.98;;;1.48;;
1402;SDS011;696;48.546;9.896;2023-08-08T05:07:55;2.25;;;1.75;;
1402;SDS011;696;48.546;9.896;2023-08-08T05:10:20;2.08;;;1.75;;
1402;SDS011;696;48.546;9.896;2023-08-08T05:12:45;1.42;;;1.10;;
1402;SDS011;696;48.546;9.896;2023-08-08T05:15:11;1.52;;;1.42;;
1402;SDS011;696;48.546;9.896;2023-08-08T05:17:36;2.80;;;1.77;;
1402;SDS011;696;48.546;9.896;2023-08-08T05:20:02;1.42;;;1.30;;
1402;SDS011;696;48.546;9.896;2023-08-08T05:22:28;2.60;;;1.63;;
1402;SDS011;696;48.546;9.896;2023-08-08T05:24:54;2.30;;;1.65;;
1402;SDS011;696;48.546;9.896;2023-08-08T05:27:19;3.13;;;1.90;;
1402;SDS011;696;48.546;9.896;2023-08-08T05:29:44;5.60;;;1.70;;
1402;SDS011;696;48.546;9.896;2023-08-08T05:32:09;3.80;;;1.80;;
1402;SDS011;696;48.546;9.896;2023-08-08T05:34:35;3.25;;;1.40;;
1402;SDS011;696;48.546;9.896;2023-08-08T05:37:00;1.55;;;1.33;;
1402;SDS011;696;48.546;9.896;2023-08-08T05:39:25;1.98;;;1.30;;
1402;SDS011;696;48.546;9.896;2023-08-08T05:41:51;8.10;;;1.60;;
1402;SDS011;696;48.546;9.896;2023-08-08T05:44:17;3.00;;;1.60;;
1402;SDS011;696;48.546;9.896;2023-08-08T05:46:42;2.58;;;1.70;;
1402;SDS011;696;48.546;9.896;2023-08-08T05:49:08;1.65;;;1.40;;
1402;SDS011;696;48.546;9.896;2023-08-08T05:51:33;2.42;;;1.40;;
1402;SDS011;696;48.546;9.896;2023-08-08T05:53:59;2.42;;;1.63;;
1402;SDS011;696;48.546;9.896;2023-08-08T05:56:24;3.55;;;1.55;;
1402;SDS011;696;48.546;9.896;2023-08-08T05:58:49;1.80;;;1.50;;
1402;SDS011;696;48.546;9.896;2023-08-08T06:01:15;5.13;;;1.48;;
1402;SDS011;696;48.546;9.896;2023-08-08T06:03:40;2.55;;;1.30;;
1402;SDS011;696;48.546;9.896;2023-08-08T06:06:06;3.65;;;1.42;;
1402;SDS011;696;48.546;9.896;2023-08-08T06:08:31;1.70;;;1.60;;
1402;SDS011;696;48.546;9.896;2023-08-08T06:10:57;1.77;;;1.45;;
1402;SDS011;696;48.546;9.896;2023-08-08T06:13:22;1.48;;;1.20;;
1402;SDS011;696;48.546;9.896;2023-08-08T06:15:48;1.75;;;1.45;;
1402;SDS011;696;48.546;9.896;2023-08-08T06:18:13;2.63;;;1.48;;
1402;SDS011;696;48.546;9.896;2023-08-08T06:20:38;2.58;;;2.00;;
1402;SDS011;696;48.546;9.896;2023-08-08T06:23:04;2.00;;;1.75;;
1402;SDS011;696;48.546;9.896;2023-08-08T06:25:29;2.08;;;1.73;;
1402;SDS011;696;48.546;9.896;2023-08-08T06:27:54;4.57;;;1.70;;
1402;SDS011;696;48.546;9.896;2023-08-08T06:30:20;3.13;;;1.45;;
1402;SDS011;696;48.546;9.896;2023-08-08T06:32:45;3.30;;;2.00;;
1402;SDS011;696;48.546;9.896;2023-08-08T06:35:10;5.93;;;2.28;;
1402;SDS011;696;48.546;9.896;2023-08-08T06:37:36;1.67;;;1.33;;
1402;SDS011;696;48.546;9.896;2023-08-08T06:40:01;1.45;;;1.20;;
1402;SDS011;696;48.546;9.896;2023-08-08T06:42:27;1.48;;;1.08;;
1402;SDS011;696;48.546;9.896;2023-08-08T06:44:52;2.65;;;1.40;;
1402;SDS011;696;48.546;9.896;2023-08-08T06:47:18;2.03;;;0.98;;
1402;SDS011;696;48.546;9.896;2023-08-08T06:49:43;1.83;;;1.17;;
1402;SDS011;696;48.546;9.896;2023-08-08T06:52:08;1.98;;;1.13;;
1402;SDS011;696;48.546;9.896;2023-08-08T06:54:34;1.30;;;1.00;;
1402;SDS011;696;48.546;9.896;2023-08-08T06:56:59;6.05;;;1.50;;
1402;SDS011;696;48.546;9.896;2023-08-08T06:59:26;3.03;;;1.30;;
1402;SDS011;696;48.546;9.896;2023-08-08T07:01:51;3.13;;;1.20;;
1402;SDS011;696;48.546;9.896;2023-08-08T07:04:17;1.70;;;1.20;;
1402;SDS011;696;48.546;9.896;2023-08-08T07:06:43;2.03;;;1.17;;
1402;SDS011;696;48.546;9.896;2023-08-08T07:09:09;1.80;;;1.15;;
1402;SDS011;696;48.546;9.896;2023-08-08T07:11:39;4.82;;;1.20;;
1402;SDS011;696;48.546;9.896;2023-08-08T07:14:05;4.05;;;1.50;;
1402;SDS011;696;48.546;9.896;2023-08-08T07:16:30;1.17;;;1.02;;
1402;SDS011;696;48.546;9.896;2023-08-08T07:18:55;2.85;;;1.13;;
1402;SDS011;696;48.546;9.896;2023-08-08T07:21:21;1.70;;;1.30;;
1402;SDS011;696;48.546;9.896;2023-08-08T07:23:46;2.22;;;1.38;;
1402;SDS011;696;48.546;9.896;2023-08-08T07:26:11;5.18;;;1.40;;
1402;SDS011;696;48.546;9.896;2023-08-08T07:28:37;2.22;;;1.40;;
1402;SDS011;696;48.546;9.896;2023-08-08T07:31:02;2.00;;;1.08;;
1402;SDS011;696;48.546;9.896;2023-08-08T07:33:28;2.42;;;1.10;;
1402;SDS011;696;48.546;9.896;2023-08-08T07:35:53;2.33;;;1.48;;
1402;SDS011;696;48.546;9.896;2023-08-08T07:38:19;1.98;;;1.33;;
1402;SDS011;696;48.546;9.896;2023-08-08T07:40:44;2.65;;;1.17;;
1402;SDS011;696;48.546;9.896;2023-08-08T07:43:11;1.63;;;1.33;;
1402;SDS011;696;48.546;9.896;2023-08-08T07:45:36;1.45;;;0.90;;
1402;SDS011;696;48.546;9.896;2023-08-08T07:48:02;2.92;;;1.27;;
1402;SDS011;696;48.546;9.896;2023-08-08T07:50:28;1.20;;;1.00;;
1402;SDS011;696;48.546;9.896;2023-08-08T07:52:53;5.10;;;1.15;;
1402;SDS011;696;48.546;9.896;2023-08-08T07:55:18;3.83;;;1.42;;
1402;SDS011;696;48.546;9.896;2023-08-08T07:57:44;1.20;;;1.10;;
1402;SDS011;696;48.546;9.896;2023-08-08T08:00:09;5.40;;;1.73;;
1402;SDS011;696;48.546;9.896;2023-08-08T08:02:38;3.90;;;1.52;;
1402;SDS011;696;48.546;9.896;2023-08-08T08:05:05;2.75;;;1.60;;
1402;SDS011;696;48.546;9.896;2023-08-08T08:07:32;3.42;;;1.30;;
1402;SDS011;696;48.546;9.896;2023-08-08T08:09:58;2.70;;;1.20;;
1402;SDS011;696;48.546;9.896;2023-08-08T08:12:24;2.35;;;1.20;;
1402;SDS011;696;48.546;9.896;2023-08-08T08:14:49;3.25;;;1.50;;
1402;SDS011;696;48.546;9.896;2023-08-08T08:17:14;7.13;;;1.25;;
1402;SDS011;696;48.546;9.896;2023-08-08T08:19:40;1.42;;;1.20;;
1402;SDS011;696;48.546;9.896;2023-08-08T08:22:05;2.05;;;1.02;;
1402;SDS011;696;48.546;9.896;2023-08-08T08:24:30;2.85;;;1.10;;
1402;SDS011;696;48.546;9.896;2023-08-08T08:26:56;1.10;;;1.00;;
1402;SDS011;696;48.546;9.896;2023-08-08T08:29:21;1.67;;;1.20;;
1402;SDS011;696;48.546;9.896;2023-08-08T08:31:46;1.08;;;0.98;;
1402;SDS011;696;48.546;9.896;2023-08-08T08:34:12;2.15;;;1.05;;
1402;SDS011;696;48.546;9.896;2023-08-08T08:36:37;2.75;;;1.30;;
1402;SDS011;696;48.546;9.896;2023-08-08T08:39:02;10.57;;;2.03;;
1402;SDS011;696;48.546;9.896;2023-08-08T08:41:28;3.88;;;1.40;;
1402;SDS011;696;48.546;9.896;2023-08-08T08:43:55;1.63;;;0.95;;
1402;SDS011;696;48.546;9.896;2023-08-08T08:46:20;3.28;;;1.23;;
1402;SDS011;696;48.546;9.896;2023-08-08T08:48:47;2.50;;;1.25;;
1402;SDS011;696;48.546;9.896;2023-08-08T08:51:16;3.40;;;1.23;;
1402;SDS011;696;48.546;9.896;2023-08-08T08:53:42;1.48;;;1.10;;
1402;SDS011;696;48.546;9.896;2023-08-08T08:56:11;1.05;;;0.98;;
1402;SDS011;696;48.546;9.896;2023-08-08T08:58:38;2.25;;;1.08;;
1402;SDS011;696;48.546;9.896;2023-08-08T09:01:04;5.70;;;1.63;;
1402;SDS011;696;48.546;9.896;2023-08-08T09:03:30;1.10;;;1.00;;
1402;SDS011;696;48.546;9.896;2023-08-08T09:05:55;5.45;;;1.25;;
1402;SDS011;696;48.546;9.896;2023-08-08T09:08:21;1.35;;;1.05;;
1402;SDS011;696;48.546;9.896;2023-08-08T09:10:47;1.63;;;1.23;;
1402;SDS011;696;48.546;9.896;2023-08-08T09:13:12;2.70;;;1.02;;
1402;SDS011;696;48.546;9.896;2023-08-08T09:15:37;1.33;;;0.98;;
1402;SDS011;696;48.546;9.896;2023-08-08T09:18:03;4.82;;;1.52;;
1402;SDS011;696;48.546;9.896;2023-08-08T09:20:28;3.10;;;1.65;;
1402;SDS011;696;48.546;9.896;2023-08-08T09:22:54;2.22;;;1.38;;
1402;SDS011;696;48.546;9.896;2023-08-08T09:25:19;1.70;;;1.20;;
1402;SDS011;696;48.546;9.896;2023-08-08T09:27:45;1.95;;;1.02;;
1402;SDS011;696;48.546;9.896;2023-08-08T09:30:11;3.90;;;1.13;;
1402;SDS011;696;48.546;9.896;2023-08-08T09:32:37;6.13;;;1.00;;
1402;SDS011;696;48.546;9.896;2023-08-08T09:35:02;2.38;;;1.20;;
1402;SDS011;696;48.546;9.896;2023-08-08T09:37:28;1.83;;;1.10;;
1402;SDS011;696;48.546;9.896;2023-08-08T09:39:57;2.83;;;1.33;;
1402;SDS011;696;48.546;9.896;2023-08-08T09:42:23;2.47;;;1.25;;
1402;SDS011;696;48.546;9.896;2023-08-08T09:44:50;1.27;;;1.00;;
1402;SDS011;696;48.546;9.896;2023-08-08T09:47:15;2.00;;;1.25;;
1402;SDS011;696;48.546;9.896;2023-08-08T09:49:41;3.20;;;1.20;;
1402;SDS011;696;48.546;9.896;2023-08-08T09:52:07;1.33;;;0.98;;
1402;SDS011;696;48.546;9.896;2023-08-08T09:54:32;2.50;;;1.30;;
1402;SDS011;696;48.546;9.896;2023-08-08T09:56:58;1.98;;;1.30;;
1402;SDS011;696;48.546;9.896;2023-08-08T09:59:23;3.15;;;1.20;;
1402;SDS011;696;48.546;9.896;2023-08-08T10:01:49;2.17;;;1.27;;
1402;SDS011;696;48.546;9.896;2023-08-08T10:04:15;1.90;;;1.05;;
1402;SDS011;696;48.546;9.896;2023-08-08T10:06:41;2.63;;;1.20;;
1402;SDS011;696;48.546;9.896;2023-08-08T10:09:06;2.55;;;1.20;;
1402;SDS011;696;48.546;9.896;2023-08-08T10:11:32;4.00;;;1.30;;
1402;SDS011;696;48.546;9.896;2023-08-08T10:14:00;3.15;;;1.40;;
1402;SDS011;696;48.546;9.896;2023-08-08T10:16:27;3.33;;;1.48;;
1402;SDS011;696;48.546;9.896;2023-08-08T10:18:58;1.83;;;0.95;;
1402;SDS011;696;48.546;9.896;2023-08-08T10:21:24;5.38;;;1.40;;
1402;SDS011;696;48.546;9.896;2023-08-08T10:24:00;3.05;;;1.20;;
1402;SDS011;696;48.546;9.896;2023-08-08T10:26:29;1.90;;;1.35;;
1402;SDS011;696;48.546;9.896;2023-08-08T10:28:55;10.15;;;1.65;;
1402;SDS011;696;48.546;9.896;2023-08-08T10:31:21;1.67;;;1.10;;
1402;SDS011;696;48.546;9.896;2023-08-08T10:33:47;2.25;;;1.40;;
1402;SDS011;696;48.546;9.896;2023-08-08T10:36:12;3.15;;;1.30;;
1402;SDS011;696;48.546;9.896;2023-08-08T10:38:45;3.85;;;1.27;;
1402;SDS011;696;48.546;9.896;2023-08-08T10:41:19;3.17;;;1.38;;
1402;SDS011;696;48.546;9.896;2023-08-08T10:43:49;2.78;;;1.00;;
1402;SDS011;696;48.546;9.896;2023-08-08T10:46:39;1.55;;;1.13;;
1402;SDS011;696;48.546;9.896;2023-08-08T10:49:05;2.65;;;1.17;;
1402;SDS011;696;48.546;9.896;2023-08-08T10:51:35;2.25;;;1.20;;
1402;SDS011;696;48.546;9.896;2023-08-08T10:54:22;2.10;;;1.20;;
1402;SDS011;696;48.546;9.896;2023-08-08T10:56:54;2.20;;;1.10;;
1402;SDS011;696;48.546;9.896;2023-08-08T10:59:24;1.75;;;1.10;;
1402;SDS011;696;48.546;9.896;2023-08-08T11:01:50;2.70;;;1.08;;
1402;SDS011;696;48.546;9.896;2023-08-08T11:04:18;2.67;;;1.27;;
1402;SDS011;696;48.546;9.896;2023-08-08T11:06:44;0.93;;;0.88;;
1402;SDS011;696;48.546;9.896;2023-08-08T11:09:09;2.50;;;1.10;;
1402;SDS011;696;48.546;9.896;2023-08-08T11:11:36;5.07;;;1.52;;
1402;SDS011;696;48.546;9.896;2023-08-08T11:16:43;1.05;;;0.93;;
1402;SDS011;696;48.546;9.896;2023-08-08T11:19:09;1.48;;;0.95;;
1402;SDS011;696;48.546;9.896;2023-08-08T11:21:36;2.47;;;1.00;;
1402;SDS011;696;48.546;9.896;2023-08-08T11:24:04;1.10;;;0.90;;
1402;SDS011;696;48.546;9.896;2023-08-08T11:26:30;2.58;;;1.20;;
1402;SDS011;696;48.546;9.896;2023-08-08T11:28:57;2.60;;;0.80;;
1402;SDS011;696;48.546;9.896;2023-08-08T11:31:23;1.58;;;1.00;;
1402;SDS011;696;48.546;9.896;2023-08-08T11:33:50;3.35;;;1.00;;
1402;SDS011;696;48.546;9.896;2023-08-08T11:36:15;2.15;;;1.00;;
1402;SDS011;696;48.546;9.896;2023-08-08T11:38:41;1.13;;;0.80;;
1402;SDS011;696;48.546;9.896;2023-08-08T11:41:08;2.47;;;1.17;;
1402;SDS011;696;48.546;9.896;2023-08-08T11:43:35;1.20;;;0.77;;
1402;SDS011;696;48.546;9.896;2023-08-08T11:46:02;1.05;;;0.95;;
1402;SDS011;696;48.546;9.896;2023-08-08T11:48:28;0.73;;;0.73;;
1402;SDS011;696;48.546;9.896;2023-08-08T11:50:53;2.97;;;1.10;;
1402;SDS011;696;48.546;9.896;2023-08-08T11:53:19;1.77;;;0.93;;
1402;SDS011;696;48.546;9.896;2023-08-08T11:55:44;1.13;;;0.77;;
1402;SDS011;696;48.546;9.896;2023-08-08T11:58:14;0.82;;;0.77;;
1402;SDS011;696;48.546;9.896;2023-08-08T12:00:39;0.70;;;0.70;;
1402;SDS011;696;48.546;9.896;2023-08-08T12:03:05;2.08;;;1.00;;
1402;SDS011;696;48.546;9.896;2023-08-08T12:05:36;2.05;;;0.98;;
1402;SDS011;696;48.546;9.896;2023-08-08T12:08:04;1.80;;;1.02;;
1402;SDS011;696;48.546;9.896;2023-08-08T12:10:30;1.00;;;0.77;;
1402;SDS011;696;48.546;9.896;2023-08-08T12:12:56;1.17;;;1.00;;
1402;SDS011;696;48.546;9.896;2023-08-08T12:15:27;1.70;;;1.02;;
1402;SDS011;696;48.546;9.896;2023-08-08T12:17:57;4.68;;;1.10;;
1402;SDS011;696;48.546;9.896;2023-08-08T12:20:23;1.80;;;0.80;;
1402;SDS011;696;48.546;9.896;2023-08-08T12:22:52;1.15;;;0.70;;
1402;SDS011;696;48.546;9.896;2023-08-08T12:25:17;1.30;;;0.90;;
1402;SDS011;696;48.546;9.896;2023-08-08T12:27:43;0.73;;;0.50;;
1402;SDS011;696;48.546;9.896;2023-08-08T12:30:08;0.73;;;0.70;;
1402;SDS011;696;48.546;9.896;2023-08-08T12:32:34;1.95;;;0.70;;
1402;SDS011;696;48.546;9.896;2023-08-08T12:34:59;2.25;;;0.73;;
1402;SDS011;696;48.546;9.896;2023-08-08T12:37:24;1.77;;;0.80;;
1402;SDS011;696;48.546;9.896;2023-08-08T12:39:50;1.00;;;0.65;;
1402;SDS011;696;48.546;9.896;2023-08-08T12:42:16;1.60;;;0.75;;
1402;SDS011;696;48.546;9.896;2023-08-08T12:44:41;1.40;;;0.70;;
1402;SDS011;696;48.546;9.896;2023-08-08T12:47:07;6.60;;;0.80;;
1402;SDS011;696;48.546;9.896;2023-08-08T12:49:32;1.75;;;0.98;;
1402;SDS011;696;48.546;9.896;2023-08-08T12:51:57;1.00;;;0.70;;
1402;SDS011;696;48.546;9.896;2023-08-08T12:54:23;1.35;;;0.88;;
1402;SDS011;696;48.546;9.896;2023-08-08T12:56:48;0.73;;;0.73;;
1402;SDS011;696;48.546;9.896;2023-08-08T12:59:13;1.45;;;0.80;;
1402;SDS011;696;48.546;9.896;2023-08-08T13:01:39;1.48;;;0.95;;
1402;SDS011;696;48.546;9.896;2023-08-08T13:04:04;1.48;;;0.82;;
1402;SDS011;696;48.546;9.896;2023-08-08T13:06:30;2.83;;;1.13;;
1402;SDS011;696;48.546;9.896;2023-08-08T13:08:55;1.05;;;0.68;;
1402;SDS011;696;48.546;9.896;2023-08-08T13:11:21;1.25;;;0.80;;
1402;SDS011;696;48.546;9.896;2023-08-08T13:13:46;0.70;;;0.63;;
1402;SDS011;696;48.546;9.896;2023-08-08T13:16:12;0.70;;;0.70;;
1402;SDS011;696;48.546;9.896;2023-08-08T13:18:37;2.00;;;0.80;;
1402;SDS011;696;48.546;9.896;2023-08-08T13:21:02;1.58;;;0.57;;
1402;SDS011;696;48.546;9.896;2023-08-08T13:23:28;2.05;;;0.75;;
1402;SDS011;696;48.546;9.896;2023-08-08T13:25:53;0.50;;;0.50;;
1402;SDS011;696;48.546;9.896;2023-08-08T13:28:19;2.17;;;0.80;;
1402;SDS011;696;48.546;9.896;2023-08-08T13:30:44;2.58;;;0.90;;
1402;SDS011;696;48.546;9.896;2023-08-08T13:33:09;1.45;;;0.90;;
1402;SDS011;696;48.546;9.896;2023-08-08T13:35:35;2.65;;;1.10;;
1402;SDS011;696;48.546;9.896;2023-08-08T13:38:00;3.83;;;0.98;;
1402;SDS011;696;48.546;9.896;2023-08-08T13:40:26;1.08;;;0.70;;
1402;SDS011;696;48.546;9.896;2023-08-08T13:42:51;0.95;;;0.82;;
1402;SDS011;696;48.546;9.896;2023-08-08T13:45:20;2.28;;;0.77;;
1402;SDS011;696;48.546;9.896;2023-08-08T13:47:47;1.05;;;0.73;;
1402;SDS011;696;48.546;9.896;2023-08-08T13:50:15;2.88;;;1.13;;
1402;SDS011;696;48.546;9.896;2023-08-08T13:52:41;2.55;;;0.95;;
1402;SDS011;696;48.546;9.896;2023-08-08T13:55:09;1.08;;;0.85;;
1402;SDS011;696;48.546;9.896;2023-08-08T13:57:35;1.38;;;0.90;;
1402;SDS011;696;48.546;9.896;2023-08-08T14:00:01;1.33;;;0.80;;
1402;SDS011;696;48.546;9.896;2023-08-08T14:02:28;2.42;;;0.75;;
1402;SDS011;696;48.546;9.896;2023-08-08T14:04:54;7.32;;;1.10;;
1402;SDS011;696;48.546;9.896;2023-08-08T14:07:19;2.50;;;0.85;;
1402;SDS011;696;48.546;9.896;2023-08-08T14:09:46;1.73;;;1.15;;
1402;SDS011;696;48.546;9.896;2023-08-08T14:12:11;1.35;;;1.08;;
1402;SDS011;696;48.546;9.896;2023-08-08T14:14:37;2.20;;;0.90;;
1402;SDS011;696;48.546;9.896;2023-08-08T14:17:02;4.25;;;1.20;;
1402;SDS011;696;48.546;9.896;2023-08-08T14:19:27;2.30;;;0.98;;
1402;SDS011;696;48.546;9.896;2023-08-08T14:21:53;1.38;;;0.93;;
1402;SDS011;696;48.546;9.896;2023-08-08T14:24:18;1.70;;;0.98;;
1402;SDS011;696;48.546;9.896;2023-08-08T14:26:44;2.42;;;1.30;;
1402;SDS011;696;48.546;9.896;2023-08-08T14:29:10;0.82;;;0.80;;
1402;SDS011;696;48.546;9.896;2023-08-08T14:31:36;2.72;;;0.93;;
1402;SDS011;696;48.546;9.896;2023-08-08T14:34:01;1.60;;;1.08;;
1402;SDS011;696;48.546;9.896;2023-08-08T14:36:28;2.33;;;1.10;;
1402;SDS011;696;48.546;9.896;2023-08-08T14:38:53;1.50;;;0.88;;
1402;SDS011;696;48.546;9.896;2023-08-08T14:41:19;3.83;;;1.38;;
1402;SDS011;696;48.546;9.896;2023-08-08T14:43:44;1.58;;;1.05;;
1402;SDS011;696;48.546;9.896;2023-08-08T14:46:09;13.80;;;1.20;;
1402;SDS011;696;48.546;9.896;2023-08-08T14:48:35;1.35;;;1.02;;
1402;SDS011;696;48.546;9.896;2023-08-08T14:51:01;5.43;;;1.13;;
1402;SDS011;696;48.546;9.896;2023-08-08T14:53:27;6.45;;;1.02;;
1402;SDS011;696;48.546;9.896;2023-08-08T14:55:52;1.92;;;1.05;;
1402;SDS011;696;48.546;9.896;2023-08-08T14:58:17;2.03;;;1.20;;
1402;SDS011;696;48.546;9.896;2023-08-08T15:00:43;1.33;;;0.90;;
1402;SDS011;696;48.546;9.896;2023-08-08T15:03:08;1.60;;;1.00;;
1402;SDS011;696;48.546;9.896;2023-08-08T15:05:34;1.30;;;0.90;;
1402;SDS011;696;48.546;9.896;2023-08-08T15:07:59;1.58;;;1.00;;
1402;SDS011;696;48.546;9.896;2023-08-08T15:10:24;2.83;;;1.20;;
1402;SDS011;696;48.546;9.896;2023-08-08T15:12:50;3.38;;;1.27;;
1402;SDS011;696;48.546;9.896;2023-08-08T15:15:15;0.95;;;0.80;;
1402;SDS011;696;48.546;9.896;2023-08-08T15:17:42;2.58;;;1.02;;
1402;SDS011;696;48.546;9.896;2023-08-08T15:20:08;6.07;;;1.20;;
1402;SDS011;696;48.546;9.896;2023-08-08T15:22:34;0.85;;;0.80;;
1402;SDS011;696;48.546;9.896;2023-08-08T15:24:59;0.98;;;0.90;;
1402;SDS011;696;48.546;9.896;2023-08-08T15:27:25;6.47;;;1.33;;